sensor_id;sensor_type;location;lat;lon;timestamp;pressure;altitude;pressure_sealevel;temperature;humidity
12785;BME280;6456;42.680;23.260;2022-09-14T00:01:36;94495.72;;;14.17;89.17
12785;BME280;6456;42.680;23.260;2022-09-14T00:04:06;94528.53;;;14.44;88.99
12785;BME280;6456;42.680;23.260;2022-09-14T00:06:35;94507.19;;;14.22;88.91
12785;BME280;6456;42.680;23.260;2022-09-14T00:09:04;94601.28;;;14.69;89.65
12785;BME280;6456;42.680;23.260;2022-09-14T00:11:33;94539.50;;;14.36;89.47
12785;BME280;6456;42.680;23.260;2022-09-14T00:14:01;94533.31;;;14.19;89.05
12785;BME280;6456;42.680;23.260;2022-09-14T00:16:35;94607.22;;;14.76;89.16
12785;BME280;6456;42.680;23.260;2022-09-14T00:19:04;94555.72;;;14.39;89.56
12785;BME280;6456;42.680;23.260;2022-09-14T00:21:32;94496.81;;;14.04;89.07
12785;BME280;6456;42.680;23.260;2022-09-14T00:23:59;94514.09;;;14.23;89.05
12785;BME280;6456;42.680;23.260;2022-09-14T00:26:30;94573.56;;;14.60;89.66
12785;BME280;6456;42.680;23.260;2022-09-14T00:28:59;94581.84;;;14.64;89.76
12785;BME280;6456;42.680;23.260;2022-09-14T00:31:30;94563.47;;;14.57;89.58
12785;BME280;6456;42.680;23.260;2022-09-14T00:33:57;94563.59;;;14.51;89.06
12785;BME280;6456;42.680;23.260;2022-09-14T00:36:26;94563.03;;;14.49;89.06
12785;BME280;6456;42.680;23.260;2022-09-14T00:38:54;94507.22;;;14.10;89.22
12785;BME280;6456;42.680;23.260;2022-09-14T00:41:25;94551.34;;;14.33;89.00
12785;BME280;6456;42.680;23.260;2022-09-14T00:43:56;94556.28;;;14.41;88.45
12785;BME280;6456;42.680;23.260;2022-09-14T00:46:25;94600.28;;;14.59;87.97
12785;BME280;6456;42.680;23.260;2022-09-14T00:48:53;94545.44;;;14.14;87.78
12785;BME280;6456;42.680;23.260;2022-09-14T00:51:22;94582.91;;;14.35;88.70
12785;BME280;6456;42.680;23.260;2022-09-14T00:53:50;94589.41;;;14.44;89.00
12785;BME280;6456;42.680;23.260;2022-09-14T00:56:17;94492.19;;;13.71;88.96
12785;BME280;6456;42.680;23.260;2022-09-14T00:58:48;94519.84;;;13.92;88.79
12785;BME280;6456;42.680;23.260;2022-09-14T01:01:18;94501.25;;;13.87;88.54
12785;BME280;6456;42.680;23.260;2022-09-14T01:03:45;94591.41;;;14.37;88.78
12785;BME280;6456;42.680;23.260;2022-09-14T01:06:17;94569.81;;;14.17;88.09
12785;BME280;6456;42.680;23.260;2022-09-14T01:08:56;94605.09;;;14.34;87.57
12785;BME280;6456;42.680;23.260;2022-09-14T01:11:56;94624.00;;;14.54;87.89
12785;BME280;6456;42.680;23.260;2022-09-14T01:14:31;94545.69;;;14.01;87.41
12785;BME280;6456;42.680;23.260;2022-09-14T01:17:08;94498.06;;;13.73;86.86
12785;BME280;6456;42.680;23.260;2022-09-14T01:22:39;94603.78;;;14.48;87.88
12785;BME280;6456;42.680;23.260;2022-09-14T01:25:17;94551.66;;;14.08;87.59
12785;BME280;6456;42.680;23.260;2022-09-14T01:27:49;94580.25;;;14.23;87.17
12785;BME280;6456;42.680;23.260;2022-09-14T01:30:19;94598.41;;;14.43;87.68
12785;BME280;6456;42.680;23.260;2022-09-14T01:32:49;94491.19;;;13.61;88.47
12785;BME280;6456;42.680;23.260;2022-09-14T01:35:23;94567.25;;;14.22;88.84
12785;BME280;6456;42.680;23.260;2022-09-14T01:37:55;94517.91;;;13.87;88.51
12785;BME280;6456;42.680;23.260;2022-09-14T01:40:28;94586.81;;;14.21;89.35
12785;BME280;6456;42.680;23.260;2022-09-14T01:42:58;94624.88;;;14.43;89.87
12785;BME280;6456;42.680;23.260;2022-09-14T01:45:29;94622.22;;;14.43;90.59
12785;BME280;6456;42.680;23.260;2022-09-14T01:47:59;94547.22;;;13.86;91.08
12785;BME280;6456;42.680;23.260;2022-09-14T01:50:30;94538.78;;;13.72;91.31
12785;BME280;6456;42.680;23.260;2022-09-14T01:53:04;94516.84;;;13.48;92.15
12785;BME280;6456;42.680;23.260;2022-09-14T01:55:38;94545.00;;;13.43;93.66
12785;BME280;6456;42.680;23.260;2022-09-14T01:58:11;94515.38;;;13.29;93.53
12785;BME280;6456;42.680;23.260;2022-09-14T02:00:43;94627.03;;;13.94;94.02
12785;BME280;6456;42.680;23.260;2022-09-14T02:03:14;94536.03;;;13.44;93.74
12785;BME280;6456;42.680;23.260;2022-09-14T02:05:48;94610.22;;;14.00;93.70
12785;BME280;6456;42.680;23.260;2022-09-14T02:08:17;94539.94;;;13.53;93.91
12785;BME280;6456;42.680;23.260;2022-09-14T02:10:44;94565.66;;;13.69;93.98
12785;BME280;6456;42.680;23.260;2022-09-14T02:13:12;94568.44;;;13.63;94.20
12785;BME280;6456;42.680;23.260;2022-09-14T02:15:39;94535.03;;;13.45;94.37
12785;BME280;6456;42.680;23.260;2022-09-14T02:18:06;94562.13;;;13.52;94.33
12785;BME280;6456;42.680;23.260;2022-09-14T02:20:37;94586.25;;;13.67;95.44
12785;BME280;6456;42.680;23.260;2022-09-14T02:23:06;94558.56;;;13.46;95.39
12785;BME280;6456;42.680;23.260;2022-09-14T02:25:34;94518.03;;;13.29;95.69
12785;BME280;6456;42.680;23.260;2022-09-14T02:28:05;94535.47;;;13.42;96.20
12785;BME280;6456;42.680;23.260;2022-09-14T02:30:40;94590.06;;;13.60;96.61
12785;BME280;6456;42.680;23.260;2022-09-14T02:33:17;94576.38;;;13.63;96.80
12785;BME280;6456;42.680;23.260;2022-09-14T02:35:49;94599.81;;;13.71;96.91
12785;BME280;6456;42.680;23.260;2022-09-14T02:38:23;94619.47;;;13.75;96.48
12785;BME280;6456;42.680;23.260;2022-09-14T02:40:56;94581.22;;;13.54;96.39
12785;BME280;6456;42.680;23.260;2022-09-14T02:43:30;94567.28;;;13.35;96.71
12785;BME280;6456;42.680;23.260;2022-09-14T02:46:05;94564.34;;;13.32;96.77
12785;BME280;6456;42.680;23.260;2022-09-14T02:48:41;94585.25;;;13.45;96.88
12785;BME280;6456;42.680;23.260;2022-09-14T02:51:14;94577.19;;;13.40;97.50
12785;BME280;6456;42.680;23.260;2022-09-14T02:53:47;94521.22;;;12.97;97.12
12785;BME280;6456;42.680;23.260;2022-09-14T02:56:15;94495.84;;;12.84;97.39
12785;BME280;6456;42.680;23.260;2022-09-14T02:58:44;94484.69;;;12.70;97.16
12785;BME280;6456;42.680;23.260;2022-09-14T03:01:15;94622.59;;;13.60;97.49
12785;BME280;6456;42.680;23.260;2022-09-14T03:03:42;94533.84;;;12.95;97.42
12785;BME280;6456;42.680;23.260;2022-09-14T03:06:10;94573.75;;;13.16;97.57
12785;BME280;6456;42.680;23.260;2022-09-14T03:08:37;94584.66;;;13.20;97.89
12785;BME280;6456;42.680;23.260;2022-09-14T03:11:04;94627.06;;;13.48;98.25
12785;BME280;6456;42.680;23.260;2022-09-14T03:13:32;94566.06;;;13.15;97.96
12785;BME280;6456;42.680;23.260;2022-09-14T03:16:03;94597.06;;;13.31;98.03
12785;BME280;6456;42.680;23.260;2022-09-14T03:18:32;94634.19;;;13.47;98.12
12785;BME280;6456;42.680;23.260;2022-09-14T03:21:03;94555.69;;;13.02;97.85
12785;BME280;6456;42.680;23.260;2022-09-14T03:23:34;94520.28;;;12.79;97.54
12785;BME280;6456;42.680;23.260;2022-09-14T03:26:05;94602.91;;;13.33;97.22
12785;BME280;6456;42.680;23.260;2022-09-14T03:28:33;94646.03;;;13.45;98.47
12785;BME280;6456;42.680;23.260;2022-09-14T03:31:00;94496.16;;;12.64;98.49
12785;BME280;6456;42.680;23.260;2022-09-14T03:33:27;94570.16;;;13.11;98.84
12785;BME280;6456;42.680;23.260;2022-09-14T03:35:56;94572.66;;;13.06;99.06
12785;BME280;6456;42.680;23.260;2022-09-14T03:38:23;94587.06;;;13.10;98.81
12785;BME280;6456;42.680;23.260;2022-09-14T03:40:55;94539.22;;;12.65;98.12
12785;BME280;6456;42.680;23.260;2022-09-14T03:43:26;94547.84;;;12.72;98.70
12785;BME280;6456;42.680;23.260;2022-09-14T03:45:52;94621.19;;;13.23;99.04
12785;BME280;6456;42.680;23.260;2022-09-14T03:48:19;94627.28;;;13.23;99.45
12785;BME280;6456;42.680;23.260;2022-09-14T03:50:46;94598.22;;;13.12;99.20
12785;BME280;6456;42.680;23.260;2022-09-14T03:53:14;94617.06;;;13.27;99.38
12785;BME280;6456;42.680;23.260;2022-09-14T03:55:41;94623.94;;;13.28;99.52
12785;BME280;6456;42.680;23.260;2022-09-14T03:58:08;94601.91;;;12.93;98.93
12785;BME280;6456;42.680;23.260;2022-09-14T04:00:35;94635.25;;;13.05;100.00
12785;BME280;6456;42.680;23.260;2022-09-14T04:03:02;94582.47;;;12.75;100.00
12785;BME280;6456;42.680;23.260;2022-09-14T04:05:29;94624.25;;;13.08;100.00
12785;BME280;6456;42.680;23.260;2022-09-14T04:07:56;94555.13;;;12.58;100.00
12785;BME280;6456;42.680;23.260;2022-09-14T04:10:25;94608.13;;;12.98;100.00
12785;BME280;6456;42.680;23.260;2022-09-14T04:12:51;94586.56;;;12.90;100.00
12785;BME280;6456;42.680;23.260;2022-09-14T04:15:18;94574.59;;;12.87;100.00
12785;BME280;6456;42.680;23.260;2022-09-14T04:17:45;94625.69;;;13.22;100.00
12785;BME280;6456;42.680;23.260;2022-09-14T04:20:13;94541.38;;;12.56;100.00
12785;BME280;6456;42.680;23.260;2022-09-14T04:22:39;94586.38;;;12.61;100.00
12785;BME280;6456;42.680;23.260;2022-09-14T04:25:07;94575.94;;;12.66;100.00
12785;BME280;6456;42.680;23.260;2022-09-14T04:27:35;94533.75;;;12.48;100.00
12785;BME280;6456;42.680;23.260;2022-09-14T04:30:02;94614.69;;;12.96;100.00
12785;BME280;6456;42.680;23.260;2022-09-14T04:32:29;94630.13;;;13.10;100.00
12785;BME280;6456;42.680;23.260;2022-09-14T04:34:56;94623.56;;;13.13;100.00
12785;BME280;6456;42.680;23.260;2022-09-14T04:37:23;94595.16;;;12.97;100.00
12785;BME280;6456;42.680;23.260;2022-09-14T04:39:50;94624.88;;;13.22;100.00
12785;BME280;6456;42.680;23.260;2022-09-14T04:42:17;94584.34;;;12.86;100.00
12785;BME280;6456;42.680;23.260;2022-09-14T04:44:45;94634.50;;;13.28;100.00
12785;BME280;6456;42.680;23.260;2022-09-14T04:47:12;94636.69;;;13.31;100.00
12785;BME280;6456;42.680;23.260;2022-09-14T04:49:38;94619.59;;;13.22;100.00
12785;BME280;6456;42.680;23.260;2022-09-14T04:52:05;94640.72;;;13.33;100.00
12785;BME280;6456;42.680;23.260;2022-09-14T04:54:32;94616.63;;;13.30;100.00
12785;BME280;6456;42.680;23.260;2022-09-14T04:56:59;94505.22;;;12.57;100.00
12785;BME280;6456;42.680;23.260;2022-09-14T04:59:26;94520.13;;;12.63;100.00
12785;BME280;6456;42.680;23.260;2022-09-14T05:01:54;94655.47;;;13.53;99.03
12785;BME280;6456;42.680;23.260;2022-09-14T05:04:21;94572.53;;;13.01;98.55
12785;BME280;6456;42.680;23.260;2022-09-14T05:06:48;94656.97;;;13.60;98.17
12785;BME280;6456;42.680;23.260;2022-09-14T05:09:16;94648.31;;;13.53;97.11
12785;BME280;6456;42.680;23.260;2022-09-14T05:11:46;94652.56;;;13.66;96.91
12785;BME280;6456;42.680;23.260;2022-09-14T05:14:14;94663.38;;;13.64;96.73
12785;BME280;6456;42.680;23.260;2022-09-14T05:16:42;94643.59;;;13.43;97.21
12785;BME280;6456;42.680;23.260;2022-09-14T05:19:12;94665.69;;;13.61;99.86
12785;BME280;6456;42.680;23.260;2022-09-14T05:21:39;94666.59;;;13.66;100.00
12785;BME280;6456;42.680;23.260;2022-09-14T05:24:10;94578.88;;;13.00;100.00
12785;BME280;6456;42.680;23.260;2022-09-14T05:26:39;94642.91;;;13.48;100.00
12785;BME280;6456;42.680;23.260;2022-09-14T05:29:06;94672.69;;;13.67;100.00
12785;BME280;6456;42.680;23.260;2022-09-14T05:31:33;94653.84;;;13.63;99.74
12785;BME280;6456;42.680;23.260;2022-09-14T05:34:00;94607.88;;;13.41;99.44
12785;BME280;6456;42.680;23.260;2022-09-14T05:36:28;94635.31;;;13.63;98.81
12785;BME280;6456;42.680;23.260;2022-09-14T05:38:55;94675.09;;;13.91;98.39
12785;BME280;6456;42.680;23.260;2022-09-14T05:41:23;94674.19;;;13.97;96.77
12785;BME280;6456;42.680;23.260;2022-09-14T05:43:50;94670.16;;;14.06;95.05
12785;BME280;6456;42.680;23.260;2022-09-14T05:46:17;94670.81;;;14.13;94.26
12785;BME280;6456;42.680;23.260;2022-09-14T05:48:45;94623.94;;;13.74;94.64
12785;BME280;6456;42.680;23.260;2022-09-14T05:51:15;94616.47;;;13.71;96.19
12785;BME280;6456;42.680;23.260;2022-09-14T05:53:46;94612.13;;;13.65;95.66
12785;BME280;6456;42.680;23.260;2022-09-14T05:56:14;94687.03;;;14.17;94.21
12785;BME280;6456;42.680;23.260;2022-09-14T05:58:41;94651.88;;;13.93;94.27
12785;BME280;6456;42.680;23.260;2022-09-14T06:01:09;94676.47;;;14.05;93.44
12785;BME280;6456;42.680;23.260;2022-09-14T06:03:37;94702.81;;;14.12;93.19
12785;BME280;6456;42.680;23.260;2022-09-14T06:06:05;94562.25;;;13.45;91.58
12785;BME280;6456;42.680;23.260;2022-09-14T06:08:32;94573.38;;;13.59;90.51
12785;BME280;6456;42.680;23.260;2022-09-14T06:11:04;94665.88;;;14.17;91.51
12785;BME280;6456;42.680;23.260;2022-09-14T06:13:31;94581.28;;;13.71;91.50
12785;BME280;6456;42.680;23.260;2022-09-14T06:16:01;94603.53;;;13.98;91.00
12785;BME280;6456;42.680;23.260;2022-09-14T06:18:29;94599.22;;;13.92;90.86
12785;BME280;6456;42.680;23.260;2022-09-14T06:20:57;94653.56;;;14.34;91.02
12785;BME280;6456;42.680;23.260;2022-09-14T06:23:25;94686.28;;;14.56;90.07
12785;BME280;6456;42.680;23.260;2022-09-14T06:25:53;94598.72;;;14.06;90.82
12785;BME280;6456;42.680;23.260;2022-09-14T06:28:22;94632.38;;;14.23;90.70
12785;BME280;6456;42.680;23.260;2022-09-14T06:30:49;94637.31;;;14.31;92.61
12785;BME280;6456;42.680;23.260;2022-09-14T06:33:16;94684.00;;;14.60;92.35
12785;BME280;6456;42.680;23.260;2022-09-14T06:36:03;94682.00;;;14.67;92.18
12785;BME280;6456;42.680;23.260;2022-09-14T06:38:32;94680.00;;;14.74;92.05
12785;BME280;6456;42.680;23.260;2022-09-14T06:41:00;94614.84;;;14.45;91.23
12785;BME280;6456;42.680;23.260;2022-09-14T06:43:32;94624.47;;;14.51;90.87
12785;BME280;6456;42.680;23.260;2022-09-14T06:46:01;94694.75;;;14.98;91.14
12785;BME280;6456;42.680;23.260;2022-09-14T06:48:30;94689.00;;;15.01;91.48
12785;BME280;6456;42.680;23.260;2022-09-14T06:50:58;94635.44;;;14.71;90.67
12785;BME280;6456;42.680;23.260;2022-09-14T06:53:25;94709.09;;;15.14;90.59
12785;BME280;6456;42.680;23.260;2022-09-14T06:55:52;94655.91;;;14.87;88.54
12785;BME280;6456;42.680;23.260;2022-09-14T06:58:19;94657.00;;;14.91;88.87
12785;BME280;6456;42.680;23.260;2022-09-14T07:00:47;94609.44;;;14.68;89.22
12785;BME280;6456;42.680;23.260;2022-09-14T07:03:14;94695.88;;;15.30;88.37
12785;BME280;6456;42.680;23.260;2022-09-14T07:05:40;94700.00;;;15.38;86.86
12785;BME280;6456;42.680;23.260;2022-09-14T07:08:07;94691.78;;;15.39;86.21
12785;BME280;6456;42.680;23.260;2022-09-14T07:10:34;94653.31;;;15.20;86.05
12785;BME280;6456;42.680;23.260;2022-09-14T07:13:01;94678.47;;;15.51;86.58
12785;BME280;6456;42.680;23.260;2022-09-14T07:15:28;94680.06;;;15.69;85.18
12785;BME280;6456;42.680;23.260;2022-09-14T07:17:56;94674.53;;;15.70;86.71
12785;BME280;6456;42.680;23.260;2022-09-14T07:20:23;94659.91;;;15.68;86.82
12785;BME280;6456;42.680;23.260;2022-09-14T07:22:50;94567.75;;;15.08;84.72
12785;BME280;6456;42.680;23.260;2022-09-14T07:25:16;94549.84;;;15.15;84.30
12785;BME280;6456;42.680;23.260;2022-09-14T07:27:43;94681.59;;;15.98;83.97
12785;BME280;6456;42.680;23.260;2022-09-14T07:30:10;94670.31;;;16.08;83.33
12785;BME280;6456;42.680;23.260;2022-09-14T07:32:37;94601.72;;;15.78;82.91
12785;BME280;6456;42.680;23.260;2022-09-14T07:35:06;94649.50;;;16.21;82.88
12785;BME280;6456;42.680;23.260;2022-09-14T07:37:33;94643.84;;;16.13;82.24
12785;BME280;6456;42.680;23.260;2022-09-14T07:40:01;94675.56;;;16.46;81.36
12785;BME280;6456;42.680;23.260;2022-09-14T07:42:28;94662.16;;;16.52;80.69
12785;BME280;6456;42.680;23.260;2022-09-14T07:44:55;94678.00;;;16.69;80.08
12785;BME280;6456;42.680;23.260;2022-09-14T07:47:23;94635.50;;;16.47;79.80
12785;BME280;6456;42.680;23.260;2022-09-14T07:49:50;94666.63;;;16.74;78.86
12785;BME280;6456;42.680;23.260;2022-09-14T07:52:18;94676.81;;;16.82;79.78
12785;BME280;6456;42.680;23.260;2022-09-14T07:54:45;94672.91;;;16.89;79.75
12785;BME280;6456;42.680;23.260;2022-09-14T07:57:12;94628.50;;;16.58;79.31
12785;BME280;6456;42.680;23.260;2022-09-14T07:59:39;94622.38;;;16.57;79.75
12785;BME280;6456;42.680;23.260;2022-09-14T08:02:07;94628.34;;;16.70;78.04
12785;BME280;6456;42.680;23.260;2022-09-14T08:04:34;94684.13;;;17.18;76.90
12785;BME280;6456;42.680;23.260;2022-09-14T08:07:02;94687.88;;;17.22;76.77
12785;BME280;6456;42.680;23.260;2022-09-14T08:09:31;94651.09;;;17.14;76.17
12785;BME280;6456;42.680;23.260;2022-09-14T08:11:57;94638.06;;;17.12;76.06
12785;BME280;6456;42.680;23.260;2022-09-14T08:14:25;94580.66;;;16.85;75.43
12785;BME280;6456;42.680;23.260;2022-09-14T08:16:52;94615.59;;;17.25;75.33
12785;BME280;6456;42.680;23.260;2022-09-14T08:19:18;94541.34;;;16.87;74.71
12785;BME280;6456;42.680;23.260;2022-09-14T08:21:46;94656.56;;;17.56;74.16
12785;BME280;6456;42.680;23.260;2022-09-14T08:24:19;94598.94;;;17.40;73.57
12785;BME280;6456;42.680;23.260;2022-09-14T08:26:48;94646.34;;;17.79;73.81
12785;BME280;6456;42.680;23.260;2022-09-14T08:29:16;94637.00;;;17.77;75.82
12785;BME280;6456;42.680;23.260;2022-09-14T08:31:44;94667.84;;;18.10;73.90
12785;BME280;6456;42.680;23.260;2022-09-14T08:34:12;94629.41;;;17.90;73.57
12785;BME280;6456;42.680;23.260;2022-09-14T08:36:40;94658.84;;;18.16;72.42
12785;BME280;6456;42.680;23.260;2022-09-14T08:39:10;94592.88;;;17.81;73.27
12785;BME280;6456;42.680;23.260;2022-09-14T08:41:42;94665.31;;;18.35;71.57
12785;BME280;6456;42.680;23.260;2022-09-14T08:44:17;94633.31;;;18.25;72.02
12785;BME280;6456;42.680;23.260;2022-09-14T08:46:47;94545.22;;;17.79;70.99
12785;BME280;6456;42.680;23.260;2022-09-14T08:49:19;94542.34;;;17.86;70.29
12785;BME280;6456;42.680;23.260;2022-09-14T08:51:48;94614.44;;;18.41;72.24
12785;BME280;6456;42.680;23.260;2022-09-14T08:54:16;94599.53;;;18.35;70.34
12785;BME280;6456;42.680;23.260;2022-09-14T08:56:45;94645.81;;;18.76;70.20
12785;BME280;6456;42.680;23.260;2022-09-14T08:59:32;94639.16;;;18.79;68.50
12785;BME280;6456;42.680;23.260;2022-09-14T09:02:16;94651.19;;;19.01;68.41
12785;BME280;6456;42.680;23.260;2022-09-14T09:04:51;94594.09;;;18.82;69.17
12785;BME280;6456;42.680;23.260;2022-09-14T09:07:25;94624.00;;;19.04;68.08
12785;BME280;6456;42.680;23.260;2022-09-14T09:09:56;94605.84;;;18.96;66.75
12785;BME280;6456;42.680;23.260;2022-09-14T09:12:33;94649.16;;;19.44;70.22
12785;BME280;6456;42.680;23.260;2022-09-14T09:15:12;94573.06;;;19.11;68.68
12785;BME280;6456;42.680;23.260;2022-09-14T09:17:44;94641.69;;;19.66;67.45
12785;BME280;6456;42.680;23.260;2022-09-14T09:20:15;94626.97;;;19.83;66.81
12785;BME280;6456;42.680;23.260;2022-09-14T09:22:46;94629.63;;;19.94;65.99
12785;BME280;6456;42.680;23.260;2022-09-14T09:25:19;94622.66;;;19.98;64.70
12785;BME280;6456;42.680;23.260;2022-09-14T09:27:48;94628.81;;;20.08;63.84
12785;BME280;6456;42.680;23.260;2022-09-14T09:30:16;94558.91;;;19.76;64.59
12785;BME280;6456;42.680;23.260;2022-09-14T09:32:43;94611.13;;;20.17;63.78
12785;BME280;6456;42.680;23.260;2022-09-14T09:35:13;94612.75;;;20.18;64.68
12785;BME280;6456;42.680;23.260;2022-09-14T09:37:41;94594.84;;;20.19;67.09
12785;BME280;6456;42.680;23.260;2022-09-14T09:40:16;94600.19;;;20.34;64.65
12785;BME280;6456;42.680;23.260;2022-09-14T09:43:14;94626.72;;;20.69;64.68
12785;BME280;6456;42.680;23.260;2022-09-14T09:45:50;94625.94;;;20.74;63.84
12785;BME280;6456;42.680;23.260;2022-09-14T09:48:21;94628.00;;;20.82;63.29
12785;BME280;6456;42.680;23.260;2022-09-14T09:50:51;94585.88;;;20.64;62.95
12785;BME280;6456;42.680;23.260;2022-09-14T09:53:21;94588.94;;;20.86;63.34
12785;BME280;6456;42.680;23.260;2022-09-14T09:55:49;94619.81;;;21.17;63.90
12785;BME280;6456;42.680;23.260;2022-09-14T09:58:22;94604.78;;;21.26;62.37
12785;BME280;6456;42.680;23.260;2022-09-14T10:00:56;94610.00;;;21.41;61.87
12785;BME280;6456;42.680;23.260;2022-09-14T10:03:29;94597.88;;;21.54;61.33
12785;BME280;6456;42.680;23.260;2022-09-14T10:06:01;94560.22;;;21.40;60.22
12785;BME280;6456;42.680;23.260;2022-09-14T10:08:30;94536.03;;;21.50;59.75
12785;BME280;6456;42.680;23.260;2022-09-14T10:11:00;94568.94;;;21.80;59.09
12785;BME280;6456;42.680;23.260;2022-09-14T10:13:31;94564.97;;;21.77;59.52
12785;BME280;6456;42.680;23.260;2022-09-14T10:16:14;94572.56;;;21.99;59.15
12785;BME280;6456;42.680;23.260;2022-09-14T10:18:43;94514.97;;;21.67;55.97
12785;BME280;6456;42.680;23.260;2022-09-14T10:21:11;94533.50;;;21.93;52.71
12785;BME280;6456;42.680;23.260;2022-09-14T10:23:39;94522.16;;;22.01;48.47
12785;BME280;6456;42.680;23.260;2022-09-14T10:26:23;94548.75;;;22.40;46.21
12785;BME280;6456;42.680;23.260;2022-09-14T10:28:51;94532.97;;;22.38;42.49
12785;BME280;6456;42.680;23.260;2022-09-14T10:31:25;94504.09;;;22.30;42.45
12785;BME280;6456;42.680;23.260;2022-09-14T10:33:56;94556.53;;;22.83;41.83
12785;BME280;6456;42.680;23.260;2022-09-14T10:36:25;94570.72;;;23.03;37.44
12785;BME280;6456;42.680;23.260;2022-09-14T10:38:56;94558.09;;;23.03;36.80
12785;BME280;6456;42.680;23.260;2022-09-14T10:41:28;94572.19;;;23.14;36.78
12785;BME280;6456;42.680;23.260;2022-09-14T10:44:22;94558.84;;;23.09;34.36
12785;BME280;6456;42.680;23.260;2022-09-14T10:47:13;94466.72;;;22.57;34.10
12785;BME280;6456;42.680;23.260;2022-09-14T10:49:55;94519.16;;;23.06;35.15
12785;BME280;6456;42.680;23.260;2022-09-14T10:52:35;94516.88;;;23.13;38.35
12785;BME280;6456;42.680;23.260;2022-09-14T10:55:20;94543.38;;;23.38;40.11
12785;BME280;6456;42.680;23.260;2022-09-14T10:58:03;94496.94;;;23.19;40.64
12785;BME280;6456;42.680;23.260;2022-09-14T11:00:41;94432.16;;;22.93;39.34
12785;BME280;6456;42.680;23.260;2022-09-14T11:03:21;94548.53;;;23.80;38.84
12785;BME280;6456;42.680;23.260;2022-09-14T11:06:01;94563.09;;;23.93;38.09
12785;BME280;6456;42.680;23.260;2022-09-14T11:08:38;94560.13;;;23.94;36.45
12785;BME280;6456;42.680;23.260;2022-09-14T11:11:33;94553.03;;;23.98;37.29
12785;BME280;6456;42.680;23.260;2022-09-14T11:14:20;94540.72;;;23.97;37.58
12785;BME280;6456;42.680;23.260;2022-09-14T11:17:07;94543.91;;;24.13;38.43
12785;BME280;6456;42.680;23.260;2022-09-14T11:19:45;94551.09;;;24.17;33.72
12785;BME280;6456;42.680;23.260;2022-09-14T11:22:21;94532.03;;;24.00;34.72
12785;BME280;6456;42.680;23.260;2022-09-14T11:24:55;94512.72;;;23.98;35.35
12785;BME280;6456;42.680;23.260;2022-09-14T11:27:25;94549.72;;;24.34;36.20
12785;BME280;6456;42.680;23.260;2022-09-14T11:29:58;94483.38;;;24.02;36.39
12785;BME280;6456;42.680;23.260;2022-09-14T11:32:30;94524.00;;;24.28;38.87
12785;BME280;6456;42.680;23.260;2022-09-14T11:35:01;94513.75;;;24.30;36.96
12785;BME280;6456;42.680;23.260;2022-09-14T11:37:33;94499.81;;;24.28;35.38
12785;BME280;6456;42.680;23.260;2022-09-14T11:40:07;94524.28;;;24.53;35.38
12785;BME280;6456;42.680;23.260;2022-09-14T11:42:44;94511.41;;;24.64;35.50
12785;BME280;6456;42.680;23.260;2022-09-14T11:45:21;94507.00;;;24.68;34.41
12785;BME280;6456;42.680;23.260;2022-09-14T11:47:58;94485.44;;;24.59;33.23
12785;BME280;6456;42.680;23.260;2022-09-14T11:50:30;94462.13;;;24.55;34.16
12785;BME280;6456;42.680;23.260;2022-09-14T11:53:02;94523.84;;;24.87;33.14
12785;BME280;6456;42.680;23.260;2022-09-14T11:55:34;94518.03;;;24.94;33.62
12785;BME280;6456;42.680;23.260;2022-09-14T11:58:06;94498.81;;;24.87;34.28
12785;BME280;6456;42.680;23.260;2022-09-14T12:03:52;94457.66;;;24.86;34.19
12785;BME280;6456;42.680;23.260;2022-09-14T12:06:44;94508.16;;;25.25;32.70
12785;BME280;6456;42.680;23.260;2022-09-14T12:09:30;94508.16;;;25.25;33.38
12785;BME280;6456;42.680;23.260;2022-09-14T12:11:59;94491.94;;;25.16;33.39
12785;BME280;6456;42.680;23.260;2022-09-14T12:14:32;94484.22;;;25.23;34.04
12785;BME280;6456;42.680;23.260;2022-09-14T12:17:16;94520.44;;;25.39;33.95
12785;BME280;6456;42.680;23.260;2022-09-14T12:19:45;94494.97;;;25.23;34.20
12785;BME280;6456;42.680;23.260;2022-09-14T12:22:27;94442.34;;;24.95;35.00
12785;BME280;6456;42.680;23.260;2022-09-14T12:25:03;94505.78;;;25.45;35.91
12785;BME280;6456;42.680;23.260;2022-09-14T12:27:34;94496.28;;;25.48;34.41
12785;BME280;6456;42.680;23.260;2022-09-14T12:30:01;94503.34;;;25.58;34.35
12785;BME280;6456;42.680;23.260;2022-09-14T12:32:40;94502.06;;;25.64;34.87
12785;BME280;6456;42.680;23.260;2022-09-14T12:35:42;94512.38;;;25.62;35.25
12785;BME280;6456;42.680;23.260;2022-09-14T12:44:39;94488.19;;;25.70;35.63
12785;BME280;6456;42.680;23.260;2022-09-14T12:50:23;94488.34;;;25.74;36.57
12785;BME280;6456;42.680;23.260;2022-09-14T12:53:16;94504.25;;;25.84;37.54
12785;BME280;6456;42.680;23.260;2022-09-14T12:56:00;94496.97;;;25.93;37.82
12785;BME280;6456;42.680;23.260;2022-09-14T12:58:56;94431.19;;;25.55;36.85
12785;BME280;6456;42.680;23.260;2022-09-14T13:01:34;94442.19;;;25.67;37.66
12785;BME280;6456;42.680;23.260;2022-09-14T13:04:03;94500.06;;;26.08;38.88
12785;BME280;6456;42.680;23.260;2022-09-14T13:06:34;94499.78;;;26.10;36.54
12785;BME280;6456;42.680;23.260;2022-09-14T13:09:14;94461.25;;;25.79;36.41
12785;BME280;6456;42.680;23.260;2022-09-14T13:11:43;94461.44;;;25.91;35.91
12785;BME280;6456;42.680;23.260;2022-09-14T13:14:15;94454.84;;;25.97;36.27
12785;BME280;6456;42.680;23.260;2022-09-14T13:16:46;94468.31;;;26.05;36.80
12785;BME280;6456;42.680;23.260;2022-09-14T13:19:21;94514.75;;;26.33;36.80
12785;BME280;6456;42.680;23.260;2022-09-14T13:21:51;94500.31;;;26.29;36.79
12785;BME280;6456;42.680;23.260;2022-09-14T13:24:27;94503.69;;;26.35;37.06
12785;BME280;6456;42.680;23.260;2022-09-14T13:26:58;94445.13;;;25.96;38.14
12785;BME280;6456;42.680;23.260;2022-09-14T13:29:27;94488.44;;;26.30;37.94
12785;BME280;6456;42.680;23.260;2022-09-14T13:31:57;94445.63;;;25.98;37.98
12785;BME280;6456;42.680;23.260;2022-09-14T13:34:26;94515.75;;;26.46;38.71
12785;BME280;6456;42.680;23.260;2022-09-14T13:36:55;94499.13;;;26.52;38.05